createdAt,value
2022-11-07T00:00:02.512Z,78.18
2022-11-07T00:05:13.216Z,78.46
2022-11-07T00:10:14.019Z,77.95
2022-11-07T00:15:14.851Z,77.34
2022-11-07T00:20:17.139Z,77.94
2022-11-07T00:25:18.155Z,77.23
2022-11-07T00:30:19.039Z,77.13
2022-11-07T00:35:21.242Z,77.49
2022-11-07T00:40:22.045Z,77.09
2022-11-07T00:45:22.883Z,78.45
2022-11-07T00:50:25.011Z,79.86
2022-11-07T00:55:25.792Z,81.23
2022-11-07T01:00:27.249Z,81.98
2022-11-07T01:05:29.344Z,82.24
2022-11-07T01:10:30.180Z,82.31
2022-11-07T01:15:31.001Z,82.19
2022-11-07T01:20:33.145Z,81.70
2022-11-07T01:25:33.957Z,82.40
2022-11-07T01:30:35.135Z,81.64
2022-11-07T01:35:38.188Z,82.32
2022-11-07T01:41:04.103Z,82.38
2022-11-07T01:46:05.020Z,82.26
2022-11-07T01:51:08.344Z,82.38
2022-11-07T01:56:14.102Z,81.34
2022-11-07T02:01:16.322Z,82.08
2022-11-07T02:06:25.194Z,81.72
2022-11-07T02:11:26.366Z,82.25
2022-11-07T02:16:27.885Z,82.08
2022-11-07T02:21:42.240Z,82.12
2022-11-07T02:26:45.452Z,83.75
2022-11-07T02:31:46.271Z,82.68
2022-11-07T02:36:47.210Z,83.58
2022-11-07T02:41:49.804Z,83.71
2022-11-07T02:46:51.021Z,83.56
2022-11-07T02:51:51.842Z,83.46
2022-11-07T02:56:54.055Z,83.28
2022-11-07T03:01:55.115Z,84.15
2022-11-07T03:06:55.972Z,83.75
2022-11-07T03:11:58.161Z,84.81
2022-11-07T03:16:58.900Z,84.70
2022-11-07T03:21:59.768Z,83.96
2022-11-07T03:27:01.901Z,84.75
2022-11-07T03:32:02.695Z,85.03
2022-11-07T03:37:03.446Z,85.77
2022-11-07T03:42:05.841Z,85.96
2022-11-07T03:47:06.774Z,85.71
2022-11-07T03:52:07.537Z,85.12
2022-11-07T03:57:10.000Z,85.38
2022-11-07T04:02:10.965Z,84.51
2022-11-07T04:07:11.802Z,84.85
2022-11-07T04:12:31.401Z,84.10
2022-11-07T04:17:32.629Z,83.66
2022-11-07T04:22:34.140Z,83.70
2022-11-07T04:27:46.907Z,84.34
2022-11-07T04:32:48.671Z,83.05
2022-11-07T04:37:49.863Z,83.21
2022-11-07T04:42:52.120Z,83.07
2022-11-07T04:47:53.097Z,82.74
2022-11-07T04:52:53.931Z,82.69
2022-11-07T04:57:56.062Z,82.54
2022-11-07T05:02:56.941Z,82.54
2022-11-07T05:07:57.785Z,82.65
2022-11-07T05:12:59.964Z,85.21
2022-11-07T05:18:00.749Z,85.54
2022-11-07T05:23:15.543Z,84.24
2022-11-07T05:28:28.008Z,82.96
2022-11-07T05:33:31.541Z,81.67
2022-11-07T05:38:32.362Z,81.48
2022-11-07T05:43:34.592Z,81.98
2022-11-07T05:48:35.658Z,81.99
2022-11-07T05:53:36.639Z,81.95
2022-11-07T05:58:39.231Z,83.20
2022-11-07T06:03:40.003Z,83.56
2022-11-07T06:08:40.864Z,83.48
2022-11-07T06:13:43.015Z,84.24
2022-11-07T06:18:43.875Z,84.67
2022-11-07T06:23:44.823Z,85.58
2022-11-07T06:28:46.946Z,84.81
2022-11-07T06:33:50.739Z,84.81
2022-11-07T06:38:53.439Z,85.20
2022-11-07T06:43:55.578Z,85.67
2022-11-07T06:48:57.049Z,84.66
2022-11-07T06:53:57.957Z,84.54
2022-11-07T06:59:00.203Z,84.63
2022-11-07T07:04:01.443Z,84.11
2022-11-07T07:09:02.658Z,83.96
2022-11-07T07:14:10.228Z,83.90
2022-11-07T07:19:12.890Z,83.36
2022-11-07T07:24:13.908Z,82.32
2022-11-07T07:29:16.039Z,82.34
2022-11-07T07:34:16.815Z,82.74
2022-11-07T07:39:17.587Z,82.11
2022-11-07T07:44:19.920Z,81.85
2022-11-07T07:49:20.712Z,81.85
2022-11-07T07:54:21.589Z,81.69
2022-11-07T07:59:23.759Z,80.97
2022-11-07T08:04:24.704Z,81.21
2022-11-07T08:09:25.468Z,80.28
2022-11-07T08:14:27.729Z,79.38
2022-11-07T08:19:28.565Z,79.26
2022-11-07T08:24:29.333Z,79.14
2022-11-07T08:29:31.769Z,78.53
2022-11-07T08:34:32.554Z,78.50
2022-11-07T08:39:33.484Z,78.44
2022-11-07T08:44:36.763Z,77.89
2022-11-07T08:49:37.574Z,77.72
2022-11-07T08:54:38.328Z,77.03
2022-11-07T08:59:40.533Z,76.23
2022-11-07T09:04:41.501Z,75.99
2022-11-07T09:09:42.374Z,75.23
2022-11-07T09:14:44.550Z,73.93
2022-11-07T09:19:45.325Z,73.71
2022-11-07T09:24:46.207Z,71.25
2022-11-07T09:29:48.441Z,69.87
2022-11-07T09:34:55.927Z,67.94
2022-11-07T09:39:57.928Z,67.13
2022-11-07T09:45:01.198Z,67.29
2022-11-07T09:50:07.956Z,68.30
2022-11-07T09:55:16.607Z,68.07
2022-11-07T10:00:20.899Z,67.10
2022-11-07T10:05:31.793Z,66.34
2022-11-07T10:10:44.599Z,65.06
2022-11-07T10:16:03.007Z,63.42
2022-11-07T10:21:36.606Z,61.88
2022-11-07T10:26:33.300Z,59.70
2022-11-07T10:31:39.965Z,57.89
2022-11-07T10:36:40.847Z,57.27
2022-11-07T10:41:44.778Z,56.85
2022-11-07T10:46:51.540Z,56.31
2022-11-07T10:51:56.978Z,56.53
2022-11-07T10:57:03.421Z,56.74
2022-11-07T11:02:20.807Z,56.62
2022-11-07T11:07:28.418Z,56.93
2022-11-07T11:12:34.453Z,56.94
2022-11-07T11:17:37.093Z,56.68
2022-11-07T11:22:43.603Z,55.75
2022-11-07T11:27:47.851Z,55.22
2022-11-07T11:32:53.548Z,54.46
2022-11-07T11:38:01.865Z,53.96
2022-11-07T11:43:12.964Z,53.59
2022-11-07T11:48:25.451Z,53.69
2022-11-07T11:53:26.379Z,54.13
2022-11-07T11:58:40.285Z,53.27
2022-11-07T12:04:08.122Z,53.47
2022-11-07T12:09:33.071Z,53.37
2022-11-07T12:14:57.049Z,53.84
2022-11-07T12:20:11.262Z,54.03
2022-11-07T12:25:22.488Z,54.06
2022-11-07T12:30:27.441Z,55.31
2022-11-07T12:35:38.223Z,55.10
2022-11-07T12:40:51.189Z,54.85
2022-11-07T12:45:58.229Z,55.00
2022-11-07T12:51:06.109Z,55.41
2022-11-07T12:56:12.404Z,55.49
2022-11-07T13:01:14.798Z,56.04
2022-11-07T13:06:24.557Z,56.62
2022-11-07T13:11:32.800Z,56.47
2022-11-07T13:16:36.320Z,55.79
2022-11-07T13:21:43.415Z,56.62
2022-11-07T13:26:47.438Z,56.16
2022-11-07T13:32:06.544Z,56.71
2022-11-07T13:37:17.346Z,56.37
2022-11-07T13:42:19.869Z,55.89
2022-11-07T13:47:26.794Z,55.58
2022-11-07T13:52:39.565Z,55.51
2022-11-07T13:57:44.704Z,55.72
2022-11-07T14:02:52.419Z,55.64
2022-11-07T14:07:59.327Z,55.67
2022-11-07T14:13:07.326Z,55.31
2022-11-07T14:18:08.474Z,55.45
2022-11-07T14:23:14.317Z,55.69
2022-11-07T14:28:17.616Z,56.04
2022-11-07T14:33:21.015Z,56.09
2022-11-07T14:38:26.088Z,57.00
2022-11-07T14:43:27.856Z,57.23
2022-11-07T14:48:30.086Z,56.62
2022-11-07T14:53:38.050Z,57.41
2022-11-07T14:58:39.267Z,56.81
2022-11-07T15:03:52.674Z,58.40
2022-11-07T15:09:00.618Z,57.88
2022-11-07T15:14:04.065Z,59.20
2022-11-07T15:19:07.166Z,58.72
2022-11-07T15:24:32.517Z,58.58
2022-11-07T15:29:36.381Z,60.91
2022-11-07T15:34:58.756Z,59.43
2022-11-07T15:39:59.535Z,61.08
2022-11-07T15:45:00.401Z,62.06
2022-11-07T15:50:04.646Z,62.28
2022-11-07T15:55:10.387Z,62.17
2022-11-07T16:00:16.821Z,63.20
2022-11-07T16:05:18.370Z,62.80
2022-11-07T16:10:23.964Z,63.59
2022-11-07T16:15:26.423Z,65.34
2022-11-07T16:20:27.274Z,67.92
2022-11-07T16:25:31.569Z,67.08
2022-11-07T16:30:34.369Z,67.39
2022-11-07T16:35:35.190Z,67.03
2022-11-07T16:40:39.932Z,67.45
2022-11-07T16:45:46.382Z,68.25
2022-11-07T16:50:47.798Z,67.62
2022-11-07T16:55:53.696Z,69.12
2022-11-07T17:00:56.465Z,68.73
2022-11-07T17:05:59.974Z,68.65
2022-11-07T17:11:02.080Z,69.03
2022-11-07T17:16:03.063Z,71.21
2022-11-07T17:21:04.119Z,70.49
2022-11-07T17:26:07.009Z,71.00
2022-11-07T17:31:07.890Z,72.35
2022-11-07T17:36:23.927Z,70.80
2022-11-07T17:41:28.302Z,71.50
2022-11-07T17:46:32.211Z,71.45
2022-11-07T17:51:33.205Z,72.39
2022-11-07T17:56:35.517Z,73.11
2022-11-07T18:01:38.571Z,72.93
2022-11-07T18:06:41.597Z,74.52
2022-11-07T18:11:44.129Z,74.65
2022-11-07T18:16:44.980Z,74.37
2022-11-07T18:21:45.871Z,75.27
2022-11-07T18:26:50.938Z,75.17
2022-11-07T18:31:51.883Z,75.23
2022-11-07T18:36:52.795Z,75.29
2022-11-07T18:41:55.133Z,74.90
2022-11-07T18:46:56.049Z,75.36
2022-11-07T18:51:56.859Z,75.38
2022-11-07T18:56:59.271Z,75.36
2022-11-07T19:02:00.281Z,75.34
2022-11-07T19:07:01.231Z,76.32
2022-11-07T19:12:03.670Z,76.60
2022-11-07T19:17:04.878Z,76.87
2022-11-07T19:22:06.560Z,77.77
2022-11-07T19:27:09.106Z,78.34
2022-11-07T19:32:10.110Z,78.03
2022-11-07T19:37:11.476Z,78.79
2022-11-07T19:42:13.721Z,79.00
2022-11-07T19:47:14.613Z,79.35
2022-11-07T19:52:15.461Z,79.48
2022-11-07T19:57:17.989Z,79.45
2022-11-07T20:02:32.283Z,79.50
2022-11-07T20:07:34.312Z,79.71
2022-11-07T20:12:36.989Z,79.59
2022-11-07T20:17:38.165Z,80.35
2022-11-07T20:22:42.603Z,80.36
2022-11-07T20:27:48.225Z,80.22
2022-11-07T20:32:49.092Z,81.37
2022-11-07T20:37:50.023Z,79.95
2022-11-07T20:42:52.292Z,80.25
2022-11-07T20:47:53.184Z,80.51
2022-11-07T20:52:57.497Z,80.63
2022-11-07T20:58:03.625Z,80.30
2022-11-07T21:03:04.890Z,80.60
2022-11-07T21:08:06.374Z,80.06
2022-11-07T21:13:08.557Z,80.37
2022-11-07T21:18:11.608Z,80.30
2022-11-07T21:23:13.171Z,80.94
2022-11-07T21:28:17.965Z,80.46
2022-11-07T21:33:19.125Z,80.77
2022-11-07T21:38:20.409Z,80.38
2022-11-07T21:43:22.626Z,80.37
2022-11-07T21:48:23.468Z,79.38
2022-11-07T21:53:24.333Z,78.93
2022-11-07T21:58:26.695Z,79.56
2022-11-07T22:03:51.073Z,78.42
2022-11-07T22:08:49.565Z,77.80
2022-11-07T22:13:51.792Z,77.67
2022-11-07T22:18:52.881Z,77.43
2022-11-07T22:23:53.733Z,78.18
2022-11-07T22:28:56.320Z,78.17
2022-11-07T22:33:59.506Z,78.54
2022-11-07T22:39:00.379Z,79.38
2022-11-07T22:44:02.733Z,78.94
2022-11-07T22:49:03.942Z,79.50
2022-11-07T22:54:06.883Z,79.50
2022-11-07T22:59:10.337Z,79.13
2022-11-07T23:04:15.137Z,79.67
2022-11-07T23:09:17.052Z,79.24
2022-11-07T23:14:21.180Z,79.03
2022-11-07T23:19:24.193Z,78.62
2022-11-07T23:24:25.266Z,78.51
2022-11-07T23:29:27.433Z,78.84
2022-11-07T23:34:29.164Z,78.64
2022-11-07T23:39:30.339Z,78.25
2022-11-07T23:44:32.572Z,78.49
2022-11-07T23:49:51.328Z,78.83
2022-11-07T23:55:09.646Z,78.34
